Wiarton, Ontario

11:17 AM EDT on September 01, 2015 (GMT -0400)
Wiarton | | Change Station
CLOSE
Current Station
Airport
Location: Wiarton,
Elevation: 728 ft
Nearby Weather Stations

Elev 728 ft 44.75 °N, 81.11 °W | Updated 17 minutes ago

Mostly Cloudy
Mostly Cloudy
75 °F
Feels Like 75 °F
N
12
Wind Variable Wind from SW

Today is forecast to be nearly the same temperature as yesterday.

Today
High -- | Low -- °F
--% Chance of Precip.
Yesterday
High -- | Low -- °F
Precip. -- in
6:46 AM 8:01 PM
Waning Gibbous, 88% visible
Pressure 30.06 in
Visibility 8.0 miles
Clouds Mostly Cloudy 700 ft
Dew Point 68 °F
Humidity 78%
Rainfall 0.00 in
Snow Depth Not available.
UV 3 out of 12
Pollen Not available.
Air Quality Not available.
Flu Activity Not available.
METAR CYVV 011500Z 23010KT 8SM BKN007 24/20 A3006 RMK SF6 WND ESTD SLP179 DENSITY ALT 1700FT
Pressure 30.06 in
Visibility 8.0 miles
Clouds Mostly Cloudy 700 ft
Dew Point 68 °F
Humidity 78%
Rainfall 0.00 in
Snow Depth Not available.
UV 3 out of 12
Pollen Not available.
Air Quality Not available.
Flu Activity Not available.
METAR CYVV 011500Z 23010KT 8SM BKN007 24/20 A3006 RMK SF6 WND ESTD SLP179 DENSITY ALT 1700FT

10-Day Weather Forecast

×

Almanac

Astronomy

Sep. 01, 2015 Rise Set
Actual Time
Civil Twilight
Nautical Twilight
Astronomical Twilight
Moon
Length of Visible Light
Length of Day
Tomorrow will be .
, % of the Moon is Illuminated

Today's Extremes

Country Highs Country Lows

Community

WunderPhotos

Upload Photos

1,851,521 photos uploaded!

WunderBlogs® & News

Nearby

Air Quality

  Air Quality AQ Index Pollutant
Not available.

Snow Depth

Station Depth Elevation

Earthquake Activity

City Distance Mag. Time & Date
Minimum magnitude displayed is 2.5.

Coastal Water Temperatures

Place Temperature

Stations

Nearby Weather Stations

Station Location Temp. Windchill Dew Point Humidity Wind Precip. Elev Updated Type